sensor_id;sensor_type;location;lat;lon;timestamp;temperature;humidity
28614;DHT22;15806;53.548;9.964;2023-04-22T00:01:39;12.00;99.90
28614;DHT22;15806;53.548;9.964;2023-04-22T00:03:20;12.00;99.90
28614;DHT22;15806;53.548;9.964;2023-04-22T00:05:00;12.00;99.90
28614;DHT22;15806;53.548;9.964;2023-04-22T00:06:41;12.00;99.90
28614;DHT22;15806;53.548;9.964;2023-04-22T00:08:21;12.00;99.90
28614;DHT22;15806;53.548;9.964;2023-04-22T00:10:02;12.00;99.90
28614;DHT22;15806;53.548;9.964;2023-04-22T00:11:43;12.00;99.90
28614;DHT22;15806;53.548;9.964;2023-04-22T00:13:23;12.00;99.90
28614;DHT22;15806;53.548;9.964;2023-04-22T00:15:04;11.90;99.90
28614;DHT22;15806;53.548;9.964;2023-04-22T00:16:46;12.00;99.90
28614;DHT22;15806;53.548;9.964;2023-04-22T00:18:28;11.90;99.90
28614;DHT22;15806;53.548;9.964;2023-04-22T00:20:09;11.90;99.90
28614;DHT22;15806;53.548;9.964;2023-04-22T00:21:49;11.90;99.90
28614;DHT22;15806;53.548;9.964;2023-04-22T00:23:30;11.90;99.90
28614;DHT22;15806;53.548;9.964;2023-04-22T00:25:10;11.90;99.90
28614;DHT22;15806;53.548;9.964;2023-04-22T00:26:51;11.90;99.90
28614;DHT22;15806;53.548;9.964;2023-04-22T00:28:32;11.90;99.90
28614;DHT22;15806;53.548;9.964;2023-04-22T00:30:12;11.90;99.90
28614;DHT22;15806;53.548;9.964;2023-04-22T00:31:53;11.90;99.90
28614;DHT22;15806;53.548;9.964;2023-04-22T00:33:33;11.80;99.90
28614;DHT22;15806;53.548;9.964;2023-04-22T00:35:14;11.80;99.90
28614;DHT22;15806;53.548;9.964;2023-04-22T00:36:54;11.80;99.90
28614;DHT22;15806;53.548;9.964;2023-04-22T00:38:35;11.80;99.90
28614;DHT22;15806;53.548;9.964;2023-04-22T00:40:15;11.80;99.90
28614;DHT22;15806;53.548;9.964;2023-04-22T00:41:56;11.90;99.90
28614;DHT22;15806;53.548;9.964;2023-04-22T00:43:37;11.80;99.90
28614;DHT22;15806;53.548;9.964;2023-04-22T00:45:19;11.80;99.90
28614;DHT22;15806;53.548;9.964;2023-04-22T00:46:59;11.80;99.90
28614;DHT22;15806;53.548;9.964;2023-04-22T00:48:40;11.80;99.90
28614;DHT22;15806;53.548;9.964;2023-04-22T00:50:21;11.80;99.90
28614;DHT22;15806;53.548;9.964;2023-04-22T00:52:02;11.80;99.90
28614;DHT22;15806;53.548;9.964;2023-04-22T00:53:42;11.80;99.90
28614;DHT22;15806;53.548;9.964;2023-04-22T00:55:23;11.80;99.90
28614;DHT22;15806;53.548;9.964;2023-04-22T00:57:04;11.80;99.90
28614;DHT22;15806;53.548;9.964;2023-04-22T00:58:45;11.80;99.90
28614;DHT22;15806;53.548;9.964;2023-04-22T01:00:27;11.70;99.90
28614;DHT22;15806;53.548;9.964;2023-04-22T01:02:07;11.80;99.90
28614;DHT22;15806;53.548;9.964;2023-04-22T01:03:49;11.80;99.90
28614;DHT22;15806;53.548;9.964;2023-04-22T01:05:30;11.80;99.90
28614;DHT22;15806;53.548;9.964;2023-04-22T01:07:10;11.80;99.90
28614;DHT22;15806;53.548;9.964;2023-04-22T01:08:51;11.70;99.90
28614;DHT22;15806;53.548;9.964;2023-04-22T01:10:32;11.70;99.90
28614;DHT22;15806;53.548;9.964;2023-04-22T01:12:12;11.70;99.90
28614;DHT22;15806;53.548;9.964;2023-04-22T01:13:53;11.70;99.90
28614;DHT22;15806;53.548;9.964;2023-04-22T01:15:33;11.80;99.90
28614;DHT22;15806;53.548;9.964;2023-04-22T01:17:15;11.70;99.90
28614;DHT22;15806;53.548;9.964;2023-04-22T01:18:55;11.80;99.90
28614;DHT22;15806;53.548;9.964;2023-04-22T01:20:36;11.80;99.90
28614;DHT22;15806;53.548;9.964;2023-04-22T01:22:18;11.90;99.90
28614;DHT22;15806;53.548;9.964;2023-04-22T01:24:00;11.80;99.90
28614;DHT22;15806;53.548;9.964;2023-04-22T01:25:41;11.90;99.90
28614;DHT22;15806;53.548;9.964;2023-04-22T01:27:22;11.90;99.90
28614;DHT22;15806;53.548;9.964;2023-04-22T01:29:03;11.90;99.90
28614;DHT22;15806;53.548;9.964;2023-04-22T01:30:44;11.90;99.90
28614;DHT22;15806;53.548;9.964;2023-04-22T01:32:24;11.90;99.90
28614;DHT22;15806;53.548;9.964;2023-04-22T01:34:05;11.90;99.90
28614;DHT22;15806;53.548;9.964;2023-04-22T01:35:46;11.90;99.90
28614;DHT22;15806;53.548;9.964;2023-04-22T01:37:28;12.00;99.90
28614;DHT22;15806;53.548;9.964;2023-04-22T01:39:08;11.90;99.90
28614;DHT22;15806;53.548;9.964;2023-04-22T01:40:50;11.90;99.90
28614;DHT22;15806;53.548;9.964;2023-04-22T01:42:31;12.00;99.90
28614;DHT22;15806;53.548;9.964;2023-04-22T01:44:12;11.90;99.90
28614;DHT22;15806;53.548;9.964;2023-04-22T01:45:53;11.90;99.90
28614;DHT22;15806;53.548;9.964;2023-04-22T01:47:34;11.90;99.90
28614;DHT22;15806;53.548;9.964;2023-04-22T01:49:15;11.90;99.90
28614;DHT22;15806;53.548;9.964;2023-04-22T01:50:56;11.90;99.90
28614;DHT22;15806;53.548;9.964;2023-04-22T01:52:36;11.90;99.90
28614;DHT22;15806;53.548;9.964;2023-04-22T01:54:17;11.90;99.90
28614;DHT22;15806;53.548;9.964;2023-04-22T01:55:58;11.90;99.90
28614;DHT22;15806;53.548;9.964;2023-04-22T01:57:39;11.80;99.90
28614;DHT22;15806;53.548;9.964;2023-04-22T01:59:20;11.80;99.90
28614;DHT22;15806;53.548;9.964;2023-04-22T02:01:00;11.80;99.90
28614;DHT22;15806;53.548;9.964;2023-04-22T02:02:41;11.80;99.90
28614;DHT22;15806;53.548;9.964;2023-04-22T02:04:21;11.80;99.90
28614;DHT22;15806;53.548;9.964;2023-04-22T02:06:02;11.80;99.90
28614;DHT22;15806;53.548;9.964;2023-04-22T02:07:42;11.80;99.90
28614;DHT22;15806;53.548;9.964;2023-04-22T02:09:23;11.80;99.90
28614;DHT22;15806;53.548;9.964;2023-04-22T02:11:05;11.80;99.90
28614;DHT22;15806;53.548;9.964;2023-04-22T02:12:46;11.70;99.90
28614;DHT22;15806;53.548;9.964;2023-04-22T02:14:27;11.70;99.90
28614;DHT22;15806;53.548;9.964;2023-04-22T02:16:07;11.70;99.90
28614;DHT22;15806;53.548;9.964;2023-04-22T02:17:48;11.70;99.90
28614;DHT22;15806;53.548;9.964;2023-04-22T02:19:29;11.70;99.90
28614;DHT22;15806;53.548;9.964;2023-04-22T02:21:09;11.60;99.90
28614;DHT22;15806;53.548;9.964;2023-04-22T02:22:50;11.70;99.90
28614;DHT22;15806;53.548;9.964;2023-04-22T02:24:31;11.60;99.90
28614;DHT22;15806;53.548;9.964;2023-04-22T02:26:14;11.60;99.90
28614;DHT22;15806;53.548;9.964;2023-04-22T02:27:55;11.60;99.90
28614;DHT22;15806;53.548;9.964;2023-04-22T02:29:36;11.60;99.90
28614;DHT22;15806;53.548;9.964;2023-04-22T02:33:31;11.60;99.90
28614;DHT22;15806;53.548;9.964;2023-04-22T02:35:12;11.50;99.90
28614;DHT22;15806;53.548;9.964;2023-04-22T02:36:53;11.50;99.90
28614;DHT22;15806;53.548;9.964;2023-04-22T02:38:33;11.50;99.90
28614;DHT22;15806;53.548;9.964;2023-04-22T02:40:14;11.50;99.90
28614;DHT22;15806;53.548;9.964;2023-04-22T02:41:54;11.50;99.90
28614;DHT22;15806;53.548;9.964;2023-04-22T02:43:35;11.50;99.90
28614;DHT22;15806;53.548;9.964;2023-04-22T02:45:15;11.50;99.90
28614;DHT22;15806;53.548;9.964;2023-04-22T02:46:56;11.50;99.90
28614;DHT22;15806;53.548;9.964;2023-04-22T02:48:36;11.40;99.90
28614;DHT22;15806;53.548;9.964;2023-04-22T02:50:17;11.40;99.90
28614;DHT22;15806;53.548;9.964;2023-04-22T02:51:57;11.40;99.90
28614;DHT22;15806;53.548;9.964;2023-04-22T02:53:38;11.40;99.90
28614;DHT22;15806;53.548;9.964;2023-04-22T02:55:18;11.40;99.90
28614;DHT22;15806;53.548;9.964;2023-04-22T02:57:00;11.40;1.00
28614;DHT22;15806;53.548;9.964;2023-04-22T02:58:40;11.30;1.00
28614;DHT22;15806;53.548;9.964;2023-04-22T03:00:21;11.20;1.00
28614;DHT22;15806;53.548;9.964;2023-04-22T03:02:02;11.20;1.00
28614;DHT22;15806;53.548;9.964;2023-04-22T03:03:42;11.20;1.00
28614;DHT22;15806;53.548;9.964;2023-04-22T03:05:23;11.10;1.00
28614;DHT22;15806;53.548;9.964;2023-04-22T03:07:03;11.10;1.00
28614;DHT22;15806;53.548;9.964;2023-04-22T03:08:44;11.10;1.00
28614;DHT22;15806;53.548;9.964;2023-04-22T03:10:24;11.10;1.00
28614;DHT22;15806;53.548;9.964;2023-04-22T03:12:05;11.10;1.00
28614;DHT22;15806;53.548;9.964;2023-04-22T03:13:45;11.20;1.00
28614;DHT22;15806;53.548;9.964;2023-04-22T03:15:26;11.20;1.00
28614;DHT22;15806;53.548;9.964;2023-04-22T03:17:06;11.20;1.00
28614;DHT22;15806;53.548;9.964;2023-04-22T03:18:47;11.20;1.00
28614;DHT22;15806;53.548;9.964;2023-04-22T03:20:27;11.20;1.00
28614;DHT22;15806;53.548;9.964;2023-04-22T03:22:08;11.20;1.00
28614;DHT22;15806;53.548;9.964;2023-04-22T03:23:48;11.20;1.00
28614;DHT22;15806;53.548;9.964;2023-04-22T03:25:29;11.20;1.00
28614;DHT22;15806;53.548;9.964;2023-04-22T03:27:09;11.10;1.00
28614;DHT22;15806;53.548;9.964;2023-04-22T03:28:50;11.10;1.00
28614;DHT22;15806;53.548;9.964;2023-04-22T03:30:30;11.10;1.00
28614;DHT22;15806;53.548;9.964;2023-04-22T03:32:11;11.10;1.00
28614;DHT22;15806;53.548;9.964;2023-04-22T03:33:51;11.10;1.00
28614;DHT22;15806;53.548;9.964;2023-04-22T03:35:32;11.10;1.00
28614;DHT22;15806;53.548;9.964;2023-04-22T03:37:12;11.10;1.00
28614;DHT22;15806;53.548;9.964;2023-04-22T03:38:53;11.10;1.00
28614;DHT22;15806;53.548;9.964;2023-04-22T03:40:35;11.10;1.00
28614;DHT22;15806;53.548;9.964;2023-04-22T03:42:15;11.10;1.00
28614;DHT22;15806;53.548;9.964;2023-04-22T03:43:55;11.10;1.00
28614;DHT22;15806;53.548;9.964;2023-04-22T03:45:36;11.10;1.00
28614;DHT22;15806;53.548;9.964;2023-04-22T03:47:17;11.10;1.00
28614;DHT22;15806;53.548;9.964;2023-04-22T03:48:57;11.00;1.00
28614;DHT22;15806;53.548;9.964;2023-04-22T03:50:38;11.00;1.00
28614;DHT22;15806;53.548;9.964;2023-04-22T03:52:18;11.00;1.00
28614;DHT22;15806;53.548;9.964;2023-04-22T03:53:59;11.00;1.00
28614;DHT22;15806;53.548;9.964;2023-04-22T03:55:39;11.00;1.00
28614;DHT22;15806;53.548;9.964;2023-04-22T03:57:20;11.10;1.00
28614;DHT22;15806;53.548;9.964;2023-04-22T03:59:00;11.00;1.00
28614;DHT22;15806;53.548;9.964;2023-04-22T04:00:41;11.00;1.00
28614;DHT22;15806;53.548;9.964;2023-04-22T04:02:21;10.90;1.00
28614;DHT22;15806;53.548;9.964;2023-04-22T04:04:02;10.90;1.00
28614;DHT22;15806;53.548;9.964;2023-04-22T04:05:43;10.90;1.00
28614;DHT22;15806;53.548;9.964;2023-04-22T04:07:23;10.90;1.00
28614;DHT22;15806;53.548;9.964;2023-04-22T04:09:04;10.90;1.00
28614;DHT22;15806;53.548;9.964;2023-04-22T04:10:45;10.90;1.00
28614;DHT22;15806;53.548;9.964;2023-04-22T04:12:25;10.90;1.00
28614;DHT22;15806;53.548;9.964;2023-04-22T04:14:05;10.90;1.00
28614;DHT22;15806;53.548;9.964;2023-04-22T04:15:46;10.90;1.00
28614;DHT22;15806;53.548;9.964;2023-04-22T04:17:26;10.90;1.00
28614;DHT22;15806;53.548;9.964;2023-04-22T04:19:07;10.80;1.00
28614;DHT22;15806;53.548;9.964;2023-04-22T04:20:48;10.80;1.00
28614;DHT22;15806;53.548;9.964;2023-04-22T04:22:28;10.80;1.00
28614;DHT22;15806;53.548;9.964;2023-04-22T04:24:09;10.80;1.00
28614;DHT22;15806;53.548;9.964;2023-04-22T04:25:49;10.80;1.00
28614;DHT22;15806;53.548;9.964;2023-04-22T04:27:30;10.80;1.00
28614;DHT22;15806;53.548;9.964;2023-04-22T04:29:11;10.80;1.00
28614;DHT22;15806;53.548;9.964;2023-04-22T04:30:51;10.80;1.00
28614;DHT22;15806;53.548;9.964;2023-04-22T04:32:33;10.80;1.00
28614;DHT22;15806;53.548;9.964;2023-04-22T04:34:14;10.80;1.00
28614;DHT22;15806;53.548;9.964;2023-04-22T04:35:54;10.80;1.00
28614;DHT22;15806;53.548;9.964;2023-04-22T04:37:35;10.80;1.00
28614;DHT22;15806;53.548;9.964;2023-04-22T04:39:15;10.80;1.00
28614;DHT22;15806;53.548;9.964;2023-04-22T04:40:56;10.80;1.00
28614;DHT22;15806;53.548;9.964;2023-04-22T04:42:36;10.80;1.00
28614;DHT22;15806;53.548;9.964;2023-04-22T04:44:17;10.80;1.00
28614;DHT22;15806;53.548;9.964;2023-04-22T04:45:57;10.70;1.00
28614;DHT22;15806;53.548;9.964;2023-04-22T04:47:38;10.70;1.00
28614;DHT22;15806;53.548;9.964;2023-04-22T04:49:18;10.70;1.00
28614;DHT22;15806;53.548;9.964;2023-04-22T04:50:59;10.80;1.00
28614;DHT22;15806;53.548;9.964;2023-04-22T04:52:39;10.80;1.00
28614;DHT22;15806;53.548;9.964;2023-04-22T04:54:20;10.80;1.00
28614;DHT22;15806;53.548;9.964;2023-04-22T04:56:02;10.80;1.00
28614;DHT22;15806;53.548;9.964;2023-04-22T04:57:45;10.80;1.00
28614;DHT22;15806;53.548;9.964;2023-04-22T04:59:26;10.90;1.00
28614;DHT22;15806;53.548;9.964;2023-04-22T05:01:07;10.80;1.00
28614;DHT22;15806;53.548;9.964;2023-04-22T05:02:47;10.90;1.00
28614;DHT22;15806;53.548;9.964;2023-04-22T05:04:28;10.80;1.00
28614;DHT22;15806;53.548;9.964;2023-04-22T05:06:09;10.80;1.00
28614;DHT22;15806;53.548;9.964;2023-04-22T05:07:49;10.80;1.00
28614;DHT22;15806;53.548;9.964;2023-04-22T05:09:30;10.80;1.00
28614;DHT22;15806;53.548;9.964;2023-04-22T05:11:10;10.90;1.00
28614;DHT22;15806;53.548;9.964;2023-04-22T05:12:51;10.90;1.00
28614;DHT22;15806;53.548;9.964;2023-04-22T05:14:31;11.00;1.00
28614;DHT22;15806;53.548;9.964;2023-04-22T05:16:12;10.90;1.00
28614;DHT22;15806;53.548;9.964;2023-04-22T05:17:53;11.00;1.00
28614;DHT22;15806;53.548;9.964;2023-04-22T05:19:33;10.90;1.00
28614;DHT22;15806;53.548;9.964;2023-04-22T05:21:14;11.00;1.00
28614;DHT22;15806;53.548;9.964;2023-04-22T05:22:54;11.00;1.00
28614;DHT22;15806;53.548;9.964;2023-04-22T05:24:35;10.90;1.00
28614;DHT22;15806;53.548;9.964;2023-04-22T05:26:15;10.90;1.00
28614;DHT22;15806;53.548;9.964;2023-04-22T05:27:56;10.90;1.00
28614;DHT22;15806;53.548;9.964;2023-04-22T05:29:40;11.00;1.00
28614;DHT22;15806;53.548;9.964;2023-04-22T05:31:21;11.00;1.00
28614;DHT22;15806;53.548;9.964;2023-04-22T05:33:01;11.10;1.00
28614;DHT22;15806;53.548;9.964;2023-04-22T05:34:42;11.10;1.00
28614;DHT22;15806;53.548;9.964;2023-04-22T05:36:22;11.10;1.00
28614;DHT22;15806;53.548;9.964;2023-04-22T05:38:03;11.20;1.00
28614;DHT22;15806;53.548;9.964;2023-04-22T05:39:43;11.20;1.00
28614;DHT22;15806;53.548;9.964;2023-04-22T05:41:24;11.20;1.00
28614;DHT22;15806;53.548;9.964;2023-04-22T05:43:05;11.20;1.00
28614;DHT22;15806;53.548;9.964;2023-04-22T05:44:45;11.30;1.00
28614;DHT22;15806;53.548;9.964;2023-04-22T05:46:26;11.30;1.00
28614;DHT22;15806;53.548;9.964;2023-04-22T05:48:06;11.30;1.00
28614;DHT22;15806;53.548;9.964;2023-04-22T05:49:47;11.30;1.00
28614;DHT22;15806;53.548;9.964;2023-04-22T05:51:27;11.40;1.00
28614;DHT22;15806;53.548;9.964;2023-04-22T05:53:08;11.40;1.00
28614;DHT22;15806;53.548;9.964;2023-04-22T05:54:48;11.40;1.00
28614;DHT22;15806;53.548;9.964;2023-04-22T05:56:29;11.40;1.00
28614;DHT22;15806;53.548;9.964;2023-04-22T05:58:09;11.50;1.00
28614;DHT22;15806;53.548;9.964;2023-04-22T05:59:50;11.60;1.00
28614;DHT22;15806;53.548;9.964;2023-04-22T06:01:30;11.50;1.00
28614;DHT22;15806;53.548;9.964;2023-04-22T06:03:11;11.60;1.00
28614;DHT22;15806;53.548;9.964;2023-04-22T06:04:51;11.60;1.00
28614;DHT22;15806;53.548;9.964;2023-04-22T06:06:32;11.60;1.00
28614;DHT22;15806;53.548;9.964;2023-04-22T06:08:12;11.60;1.00
28614;DHT22;15806;53.548;9.964;2023-04-22T06:09:53;11.50;1.00
28614;DHT22;15806;53.548;9.964;2023-04-22T06:11:33;11.70;1.00
28614;DHT22;15806;53.548;9.964;2023-04-22T06:13:14;11.70;1.00
28614;DHT22;15806;53.548;9.964;2023-04-22T06:14:54;11.80;1.00
28614;DHT22;15806;53.548;9.964;2023-04-22T06:16:35;11.70;1.00
28614;DHT22;15806;53.548;9.964;2023-04-22T06:18:15;11.80;1.00
28614;DHT22;15806;53.548;9.964;2023-04-22T06:19:56;11.80;1.00
28614;DHT22;15806;53.548;9.964;2023-04-22T06:21:36;11.90;1.00
28614;DHT22;15806;53.548;9.964;2023-04-22T06:23:17;11.90;1.00
28614;DHT22;15806;53.548;9.964;2023-04-22T06:24:57;12.00;1.00
28614;DHT22;15806;53.548;9.964;2023-04-22T06:26:38;12.00;1.00
28614;DHT22;15806;53.548;9.964;2023-04-22T06:28:19;12.00;1.00
28614;DHT22;15806;53.548;9.964;2023-04-22T06:29:59;12.00;1.00
28614;DHT22;15806;53.548;9.964;2023-04-22T06:31:40;12.00;1.00
28614;DHT22;15806;53.548;9.964;2023-04-22T06:33:20;12.10;1.00
28614;DHT22;15806;53.548;9.964;2023-04-22T06:35:01;12.10;1.00
28614;DHT22;15806;53.548;9.964;2023-04-22T06:36:43;12.10;1.00
28614;DHT22;15806;53.548;9.964;2023-04-22T06:38:25;12.10;1.00
28614;DHT22;15806;53.548;9.964;2023-04-22T06:40:06;12.20;1.00
28614;DHT22;15806;53.548;9.964;2023-04-22T06:41:46;12.20;1.00
28614;DHT22;15806;53.548;9.964;2023-04-22T06:43:27;12.20;1.00
28614;DHT22;15806;53.548;9.964;2023-04-22T06:45:08;12.30;1.00
28614;DHT22;15806;53.548;9.964;2023-04-22T06:46:49;12.30;1.00
28614;DHT22;15806;53.548;9.964;2023-04-22T06:48:30;12.30;1.00
28614;DHT22;15806;53.548;9.964;2023-04-22T06:50:10;12.40;1.00
28614;DHT22;15806;53.548;9.964;2023-04-22T06:51:52;12.40;1.00
28614;DHT22;15806;53.548;9.964;2023-04-22T06:53:33;12.40;1.00
28614;DHT22;15806;53.548;9.964;2023-04-22T06:55:13;12.50;1.00
28614;DHT22;15806;53.548;9.964;2023-04-22T06:56:54;12.50;1.00
28614;DHT22;15806;53.548;9.964;2023-04-22T06:58:38;12.50;1.00
28614;DHT22;15806;53.548;9.964;2023-04-22T07:00:18;12.60;1.00
28614;DHT22;15806;53.548;9.964;2023-04-22T07:01:59;13.10;1.00
28614;DHT22;15806;53.548;9.964;2023-04-22T07:03:39;13.70;1.00
28614;DHT22;15806;53.548;9.964;2023-04-22T07:05:20;14.00;1.00
28614;DHT22;15806;53.548;9.964;2023-04-22T07:07:00;14.30;1.00
28614;DHT22;15806;53.548;9.964;2023-04-22T07:08:41;14.40;99.90
28614;DHT22;15806;53.548;9.964;2023-04-22T07:10:23;14.40;99.90
28614;DHT22;15806;53.548;9.964;2023-04-22T07:12:04;14.60;99.90
28614;DHT22;15806;53.548;9.964;2023-04-22T07:13:44;14.40;99.90
28614;DHT22;15806;53.548;9.964;2023-04-22T07:15:25;14.70;99.90
28614;DHT22;15806;53.548;9.964;2023-04-22T07:17:05;15.10;99.90
28614;DHT22;15806;53.548;9.964;2023-04-22T07:18:46;15.10;99.90
28614;DHT22;15806;53.548;9.964;2023-04-22T07:20:26;14.90;99.90
28614;DHT22;15806;53.548;9.964;2023-04-22T07:22:07;15.20;99.90
28614;DHT22;15806;53.548;9.964;2023-04-22T07:23:48;15.60;99.90
28614;DHT22;15806;53.548;9.964;2023-04-22T07:25:28;15.90;99.90
28614;DHT22;15806;53.548;9.964;2023-04-22T07:27:09;15.80;99.90
28614;DHT22;15806;53.548;9.964;2023-04-22T07:28:49;15.10;99.90
28614;DHT22;15806;53.548;9.964;2023-04-22T07:30:30;14.40;99.90
28614;DHT22;15806;53.548;9.964;2023-04-22T07:32:11;13.90;99.90
28614;DHT22;15806;53.548;9.964;2023-04-22T07:33:51;13.80;99.90
28614;DHT22;15806;53.548;9.964;2023-04-22T07:35:32;13.70;99.90
28614;DHT22;15806;53.548;9.964;2023-04-22T07:37:12;13.50;1.00
28614;DHT22;15806;53.548;9.964;2023-04-22T07:38:53;13.40;1.00
28614;DHT22;15806;53.548;9.964;2023-04-22T07:40:33;13.60;1.00
28614;DHT22;15806;53.548;9.964;2023-04-22T07:42:14;13.60;1.00
28614;DHT22;15806;53.548;9.964;2023-04-22T07:43:54;13.80;1.00
28614;DHT22;15806;53.548;9.964;2023-04-22T07:45:35;13.80;1.00
28614;DHT22;15806;53.548;9.964;2023-04-22T07:47:15;13.90;1.00
28614;DHT22;15806;53.548;9.964;2023-04-22T07:48:56;14.00;1.00
28614;DHT22;15806;53.548;9.964;2023-04-22T07:50:36;14.10;1.00
28614;DHT22;15806;53.548;9.964;2023-04-22T07:52:17;14.20;1.00
28614;DHT22;15806;53.548;9.964;2023-04-22T07:53:57;14.20;1.00
28614;DHT22;15806;53.548;9.964;2023-04-22T07:55:38;14.20;1.00
28614;DHT22;15806;53.548;9.964;2023-04-22T07:57:18;14.30;1.00
28614;DHT22;15806;53.548;9.964;2023-04-22T07:58:59;14.30;1.00
28614;DHT22;15806;53.548;9.964;2023-04-22T08:00:39;14.40;1.00
28614;DHT22;15806;53.548;9.964;2023-04-22T08:02:20;14.40;1.00
28614;DHT22;15806;53.548;9.964;2023-04-22T08:04:00;14.60;1.00
28614;DHT22;15806;53.548;9.964;2023-04-22T08:05:41;14.80;1.00
28614;DHT22;15806;53.548;9.964;2023-04-22T08:07:21;14.80;1.00
28614;DHT22;15806;53.548;9.964;2023-04-22T08:09:02;14.90;1.00
28614;DHT22;15806;53.548;9.964;2023-04-22T08:10:42;14.90;1.00
28614;DHT22;15806;53.548;9.964;2023-04-22T08:12:23;15.00;99.90
28614;DHT22;15806;53.548;9.964;2023-04-22T08:14:04;15.10;99.90
28614;DHT22;15806;53.548;9.964;2023-04-22T08:15:44;15.10;99.90
28614;DHT22;15806;53.548;9.964;2023-04-22T08:17:25;15.10;99.90
28614;DHT22;15806;53.548;9.964;2023-04-22T08:19:06;15.30;99.90
28614;DHT22;15806;53.548;9.964;2023-04-22T08:20:46;15.30;99.90
28614;DHT22;15806;53.548;9.964;2023-04-22T08:22:27;15.30;99.90
28614;DHT22;15806;53.548;9.964;2023-04-22T08:24:07;15.40;99.90
28614;DHT22;15806;53.548;9.964;2023-04-22T08:25:48;15.30;99.90
28614;DHT22;15806;53.548;9.964;2023-04-22T08:27:28;15.30;99.90
28614;DHT22;15806;53.548;9.964;2023-04-22T08:29:09;15.40;99.90
28614;DHT22;15806;53.548;9.964;2023-04-22T08:30:50;15.40;99.90
28614;DHT22;15806;53.548;9.964;2023-04-22T08:32:30;15.50;99.90
28614;DHT22;15806;53.548;9.964;2023-04-22T08:34:11;15.60;99.90
28614;DHT22;15806;53.548;9.964;2023-04-22T08:35:51;15.80;99.90
28614;DHT22;15806;53.548;9.964;2023-04-22T08:37:33;15.80;99.90
28614;DHT22;15806;53.548;9.964;2023-04-22T08:39:13;15.80;99.90
28614;DHT22;15806;53.548;9.964;2023-04-22T08:40:55;15.80;99.90
28614;DHT22;15806;53.548;9.964;2023-04-22T08:42:36;15.90;99.90
28614;DHT22;15806;53.548;9.964;2023-04-22T08:44:18;16.10;99.90
28614;DHT22;15806;53.548;9.964;2023-04-22T08:45:59;16.10;99.90
28614;DHT22;15806;53.548;9.964;2023-04-22T08:47:40;16.10;99.90
28614;DHT22;15806;53.548;9.964;2023-04-22T08:49:23;16.00;99.90
28614;DHT22;15806;53.548;9.964;2023-04-22T08:51:07;16.00;99.90
28614;DHT22;15806;53.548;9.964;2023-04-22T08:52:48;16.00;99.90
28614;DHT22;15806;53.548;9.964;2023-04-22T08:54:28;16.30;99.90
28614;DHT22;15806;53.548;9.964;2023-04-22T08:56:11;16.30;99.90
28614;DHT22;15806;53.548;9.964;2023-04-22T08:57:52;16.60;99.90
28614;DHT22;15806;53.548;9.964;2023-04-22T08:59:34;16.80;99.90
28614;DHT22;15806;53.548;9.964;2023-04-22T09:01:15;16.80;99.90
28614;DHT22;15806;53.548;9.964;2023-04-22T09:02:57;16.90;99.90
28614;DHT22;15806;53.548;9.964;2023-04-22T09:04:39;16.90;99.90
28614;DHT22;15806;53.548;9.964;2023-04-22T09:06:21;17.10;99.90
28614;DHT22;15806;53.548;9.964;2023-04-22T09:08:02;17.30;99.90
28614;DHT22;15806;53.548;9.964;2023-04-22T09:09:43;17.20;99.90
28614;DHT22;15806;53.548;9.964;2023-04-22T09:11:26;17.20;99.90
28614;DHT22;15806;53.548;9.964;2023-04-22T09:13:08;17.20;99.90
28614;DHT22;15806;53.548;9.964;2023-04-22T09:14:50;17.20;99.90
28614;DHT22;15806;53.548;9.964;2023-04-22T09:16:39;17.40;99.90
28614;DHT22;15806;53.548;9.964;2023-04-22T09:18:20;17.40;99.90
28614;DHT22;15806;53.548;9.964;2023-04-22T09:20:01;17.50;99.90
28614;DHT22;15806;53.548;9.964;2023-04-22T09:21:42;17.40;99.90
28614;DHT22;15806;53.548;9.964;2023-04-22T09:23:23;17.30;99.90
28614;DHT22;15806;53.548;9.964;2023-04-22T09:25:04;17.20;99.90
28614;DHT22;15806;53.548;9.964;2023-04-22T09:26:45;17.10;99.90
28614;DHT22;15806;53.548;9.964;2023-04-22T09:28:26;17.10;99.90
28614;DHT22;15806;53.548;9.964;2023-04-22T09:30:08;17.10;99.90
28614;DHT22;15806;53.548;9.964;2023-04-22T09:31:49;17.10;99.90
28614;DHT22;15806;53.548;9.964;2023-04-22T09:33:30;17.10;99.90
28614;DHT22;15806;53.548;9.964;2023-04-22T09:35:11;17.10;99.90
28614;DHT22;15806;53.548;9.964;2023-04-22T09:36:51;17.20;99.90
28614;DHT22;15806;53.548;9.964;2023-04-22T09:38:33;17.30;99.90
28614;DHT22;15806;53.548;9.964;2023-04-22T09:40:15;17.40;99.90
28614;DHT22;15806;53.548;9.964;2023-04-22T09:41:57;17.40;99.90
28614;DHT22;15806;53.548;9.964;2023-04-22T09:43:38;17.50;99.90
28614;DHT22;15806;53.548;9.964;2023-04-22T09:45:39;17.70;99.90
28614;DHT22;15806;53.548;9.964;2023-04-22T09:47:20;17.70;99.90
28614;DHT22;15806;53.548;9.964;2023-04-22T09:49:01;17.80;99.90
28614;DHT22;15806;53.548;9.964;2023-04-22T09:50:46;17.70;99.90
28614;DHT22;15806;53.548;9.964;2023-04-22T09:52:27;17.70;99.90
28614;DHT22;15806;53.548;9.964;2023-04-22T09:54:09;17.80;99.90
28614;DHT22;15806;53.548;9.964;2023-04-22T09:55:52;17.80;99.90
28614;DHT22;15806;53.548;9.964;2023-04-22T09:57:33;17.80;99.90
28614;DHT22;15806;53.548;9.964;2023-04-22T09:59:28;17.80;99.90
28614;DHT22;15806;53.548;9.964;2023-04-22T10:01:09;17.90;99.90
28614;DHT22;15806;53.548;9.964;2023-04-22T10:02:49;17.90;99.90
28614;DHT22;15806;53.548;9.964;2023-04-22T10:04:30;18.00;99.90
28614;DHT22;15806;53.548;9.964;2023-04-22T10:06:10;18.10;99.90
28614;DHT22;15806;53.548;9.964;2023-04-22T10:07:51;18.10;99.90
28614;DHT22;15806;53.548;9.964;2023-04-22T10:09:32;18.10;99.90
28614;DHT22;15806;53.548;9.964;2023-04-22T10:11:13;18.10;99.90
28614;DHT22;15806;53.548;9.964;2023-04-22T10:12:53;18.20;99.90
28614;DHT22;15806;53.548;9.964;2023-04-22T10:14:34;18.40;99.90
28614;DHT22;15806;53.548;9.964;2023-04-22T10:16:15;18.40;99.90
28614;DHT22;15806;53.548;9.964;2023-04-22T10:17:58;18.40;99.90
28614;DHT22;15806;53.548;9.964;2023-04-22T10:19:40;18.50;99.90
28614;DHT22;15806;53.548;9.964;2023-04-22T10:21:23;18.60;99.90
28614;DHT22;15806;53.548;9.964;2023-04-22T10:23:11;18.50;99.90
28614;DHT22;15806;53.548;9.964;2023-04-22T10:24:51;18.60;99.90
28614;DHT22;15806;53.548;9.964;2023-04-22T10:28:24;18.80;99.90
28614;DHT22;15806;53.548;9.964;2023-04-22T10:30:08;18.80;99.90
28614;DHT22;15806;53.548;9.964;2023-04-22T10:32:07;18.90;99.90
28614;DHT22;15806;53.548;9.964;2023-04-22T10:34:13;18.90;99.90
28614;DHT22;15806;53.548;9.964;2023-04-22T10:37:53;19.00;99.90
28614;DHT22;15806;53.548;9.964;2023-04-22T10:39:34;19.10;99.90
28614;DHT22;15806;53.548;9.964;2023-04-22T10:41:21;19.10;99.90
28614;DHT22;15806;53.548;9.964;2023-04-22T10:43:03;19.10;99.90
28614;DHT22;15806;53.548;9.964;2023-04-22T10:44:53;19.20;99.90
28614;DHT22;15806;53.548;9.964;2023-04-22T10:48:14;19.30;99.90
28614;DHT22;15806;53.548;9.964;2023-04-22T10:52:01;19.30;99.90
28614;DHT22;15806;53.548;9.964;2023-04-22T10:53:43;19.40;99.90